sensor_id;sensor_type;location;lat;lon;timestamp;temperature;humidity
12700;DHT22;6414;49.570;6.060;2023-02-10T00:01:06;-2.60;99.90
12700;DHT22;6414;49.570;6.060;2023-02-10T00:03:50;-2.60;99.90
12700;DHT22;6414;49.570;6.060;2023-02-10T00:06:36;-2.50;99.90
12700;DHT22;6414;49.570;6.060;2023-02-10T00:09:22;-2.50;99.90
12700;DHT22;6414;49.570;6.060;2023-02-10T00:12:08;-2.50;99.90
12700;DHT22;6414;49.570;6.060;2023-02-10T00:14:53;-2.50;99.90
12700;DHT22;6414;49.570;6.060;2023-02-10T00:17:39;-2.40;99.90
12700;DHT22;6414;49.570;6.060;2023-02-10T00:20:25;-2.30;99.90
12700;DHT22;6414;49.570;6.060;2023-02-10T00:23:11;-2.10;99.90
12700;DHT22;6414;49.570;6.060;2023-02-10T00:25:56;-2.10;99.90
12700;DHT22;6414;49.570;6.060;2023-02-10T00:28:42;-2.10;99.90
12700;DHT22;6414;49.570;6.060;2023-02-10T00:31:28;-2.10;99.90
12700;DHT22;6414;49.570;6.060;2023-02-10T00:34:13;-2.00;99.90
12700;DHT22;6414;49.570;6.060;2023-02-10T00:36:58;-2.10;99.90
12700;DHT22;6414;49.570;6.060;2023-02-10T00:39:45;-2.30;99.90
12700;DHT22;6414;49.570;6.060;2023-02-10T00:42:30;-2.30;99.90
12700;DHT22;6414;49.570;6.060;2023-02-10T00:45:16;-2.30;99.90
12700;DHT22;6414;49.570;6.060;2023-02-10T00:48:01;-2.30;99.90
12700;DHT22;6414;49.570;6.060;2023-02-10T00:50:46;-2.30;99.90
12700;DHT22;6414;49.570;6.060;2023-02-10T00:53:33;-2.30;99.90
12700;DHT22;6414;49.570;6.060;2023-02-10T00:56:19;-2.40;99.90
12700;DHT22;6414;49.570;6.060;2023-02-10T00:59:05;-2.00;99.90
12700;DHT22;6414;49.570;6.060;2023-02-10T01:01:51;-2.10;99.90
12700;DHT22;6414;49.570;6.060;2023-02-10T01:04:36;-1.90;99.90
12700;DHT22;6414;49.570;6.060;2023-02-10T01:07:22;-1.90;99.90
12700;DHT22;6414;49.570;6.060;2023-02-10T01:10:07;-2.10;99.90
12700;DHT22;6414;49.570;6.060;2023-02-10T01:12:53;-2.60;99.90
12700;DHT22;6414;49.570;6.060;2023-02-10T01:15:42;-2.50;99.90
12700;DHT22;6414;49.570;6.060;2023-02-10T01:18:27;-2.60;99.90
12700;DHT22;6414;49.570;6.060;2023-02-10T01:21:14;-2.50;99.90
12700;DHT22;6414;49.570;6.060;2023-02-10T01:23:59;-2.40;99.90
12700;DHT22;6414;49.570;6.060;2023-02-10T01:26:45;-2.40;99.90
12700;DHT22;6414;49.570;6.060;2023-02-10T01:29:31;-2.60;99.90
12700;DHT22;6414;49.570;6.060;2023-02-10T01:32:17;-2.70;99.90
12700;DHT22;6414;49.570;6.060;2023-02-10T01:35:03;-2.30;99.90
12700;DHT22;6414;49.570;6.060;2023-02-10T01:37:48;-2.20;99.90
12700;DHT22;6414;49.570;6.060;2023-02-10T01:40:34;-2.10;99.90
12700;DHT22;6414;49.570;6.060;2023-02-10T01:43:19;-1.90;99.90
12700;DHT22;6414;49.570;6.060;2023-02-10T01:46:05;-1.90;99.90
12700;DHT22;6414;49.570;6.060;2023-02-10T01:48:51;-1.90;99.90
12700;DHT22;6414;49.570;6.060;2023-02-10T01:52:23;-1.50;99.90
12700;DHT22;6414;49.570;6.060;2023-02-10T01:54:39;-1.40;99.90
12700;DHT22;6414;49.570;6.060;2023-02-10T01:57:24;-1.10;99.90
12700;DHT22;6414;49.570;6.060;2023-02-10T02:00:10;-1.10;99.90
12700;DHT22;6414;49.570;6.060;2023-02-10T02:02:55;-1.00;99.90
12700;DHT22;6414;49.570;6.060;2023-02-10T02:05:42;-0.90;99.90
12700;DHT22;6414;49.570;6.060;2023-02-10T02:08:29;-0.80;99.90
12700;DHT22;6414;49.570;6.060;2023-02-10T02:14:30;-0.80;99.90
12700;DHT22;6414;49.570;6.060;2023-02-10T02:17:21;-0.60;99.90
12700;DHT22;6414;49.570;6.060;2023-02-10T02:23:25;-0.30;20.60
12700;DHT22;6414;49.570;6.060;2023-02-10T02:26:29;-0.30;1.00
12700;DHT22;6414;49.570;6.060;2023-02-10T02:32:14;-0.30;1.00
12700;DHT22;6414;49.570;6.060;2023-02-10T02:35:11;-0.30;1.00
12700;DHT22;6414;49.570;6.060;2023-02-10T02:37:51;-0.40;1.00
12700;DHT22;6414;49.570;6.060;2023-02-10T02:40:37;-0.40;1.00
12700;DHT22;6414;49.570;6.060;2023-02-10T02:43:23;-0.40;39.60
12700;DHT22;6414;49.570;6.060;2023-02-10T02:46:21;-0.40;31.30
12700;DHT22;6414;49.570;6.060;2023-02-10T02:52:05;-0.50;99.90
12700;DHT22;6414;49.570;6.060;2023-02-10T02:58:04;-0.50;99.90
12700;DHT22;6414;49.570;6.060;2023-02-10T03:00:44;-0.40;99.90
12700;DHT22;6414;49.570;6.060;2023-02-10T03:03:31;-0.40;99.90
12700;DHT22;6414;49.570;6.060;2023-02-10T03:06:16;-0.40;99.90
12700;DHT22;6414;49.570;6.060;2023-02-10T03:09:02;-0.40;99.90
12700;DHT22;6414;49.570;6.060;2023-02-10T03:11:47;-0.40;99.90
12700;DHT22;6414;49.570;6.060;2023-02-10T03:14:33;-0.40;99.90
12700;DHT22;6414;49.570;6.060;2023-02-10T03:17:19;-0.40;99.90
12700;DHT22;6414;49.570;6.060;2023-02-10T03:20:05;-0.40;99.90
12700;DHT22;6414;49.570;6.060;2023-02-10T03:22:50;-0.40;99.90
12700;DHT22;6414;49.570;6.060;2023-02-10T03:25:36;-0.40;99.90
12700;DHT22;6414;49.570;6.060;2023-02-10T03:28:21;-0.40;99.90
12700;DHT22;6414;49.570;6.060;2023-02-10T03:31:07;-0.30;99.90
12700;DHT22;6414;49.570;6.060;2023-02-10T03:33:53;-0.30;99.90
12700;DHT22;6414;49.570;6.060;2023-02-10T03:36:39;-0.20;99.90
12700;DHT22;6414;49.570;6.060;2023-02-10T03:39:25;-0.10;99.90
12700;DHT22;6414;49.570;6.060;2023-02-10T03:42:10;-0.10;99.90
12700;DHT22;6414;49.570;6.060;2023-02-10T03:44:56;0.00;99.90
12700;DHT22;6414;49.570;6.060;2023-02-10T03:47:41;0.00;99.90
12700;DHT22;6414;49.570;6.060;2023-02-10T03:50:27;0.00;99.90
12700;DHT22;6414;49.570;6.060;2023-02-10T03:53:12;0.20;99.90
12700;DHT22;6414;49.570;6.060;2023-02-10T03:55:57;0.20;99.90
12700;DHT22;6414;49.570;6.060;2023-02-10T03:58:43;0.20;99.90
12700;DHT22;6414;49.570;6.060;2023-02-10T04:01:29;0.20;99.90
12700;DHT22;6414;49.570;6.060;2023-02-10T04:04:14;0.20;99.90
12700;DHT22;6414;49.570;6.060;2023-02-10T04:07:00;0.10;99.90
12700;DHT22;6414;49.570;6.060;2023-02-10T04:09:45;0.00;99.90
12700;DHT22;6414;49.570;6.060;2023-02-10T04:12:32;0.10;99.90
12700;DHT22;6414;49.570;6.060;2023-02-10T04:15:18;0.10;99.90
12700;DHT22;6414;49.570;6.060;2023-02-10T04:18:03;0.10;99.90
12700;DHT22;6414;49.570;6.060;2023-02-10T04:20:49;0.10;99.90
12700;DHT22;6414;49.570;6.060;2023-02-10T04:23:34;0.00;99.90
12700;DHT22;6414;49.570;6.060;2023-02-10T04:26:19;0.00;99.90
12700;DHT22;6414;49.570;6.060;2023-02-10T04:29:05;0.00;99.90
12700;DHT22;6414;49.570;6.060;2023-02-10T04:31:52;0.00;99.90
12700;DHT22;6414;49.570;6.060;2023-02-10T04:34:38;0.00;99.90
12700;DHT22;6414;49.570;6.060;2023-02-10T04:37:23;0.10;99.90
12700;DHT22;6414;49.570;6.060;2023-02-10T04:40:08;0.20;99.90
12700;DHT22;6414;49.570;6.060;2023-02-10T04:42:54;0.20;99.90
12700;DHT22;6414;49.570;6.060;2023-02-10T04:45:39;0.30;99.90
12700;DHT22;6414;49.570;6.060;2023-02-10T04:48:25;0.20;99.90
12700;DHT22;6414;49.570;6.060;2023-02-10T04:51:11;0.10;99.90
12700;DHT22;6414;49.570;6.060;2023-02-10T04:53:56;0.20;99.90
12700;DHT22;6414;49.570;6.060;2023-02-10T04:56:41;0.20;99.90
12700;DHT22;6414;49.570;6.060;2023-02-10T04:59:27;0.30;99.90
12700;DHT22;6414;49.570;6.060;2023-02-10T05:02:13;0.20;99.90
12700;DHT22;6414;49.570;6.060;2023-02-10T05:04:59;0.30;99.90
12700;DHT22;6414;49.570;6.060;2023-02-10T05:07:45;0.30;99.90
12700;DHT22;6414;49.570;6.060;2023-02-10T05:10:31;0.40;99.90
12700;DHT22;6414;49.570;6.060;2023-02-10T05:13:16;0.40;99.90
12700;DHT22;6414;49.570;6.060;2023-02-10T05:16:03;0.50;99.90
12700;DHT22;6414;49.570;6.060;2023-02-10T05:18:48;0.50;99.90
12700;DHT22;6414;49.570;6.060;2023-02-10T05:21:33;0.60;99.90
12700;DHT22;6414;49.570;6.060;2023-02-10T05:24:19;0.50;99.90
12700;DHT22;6414;49.570;6.060;2023-02-10T05:27:04;0.50;99.90
12700;DHT22;6414;49.570;6.060;2023-02-10T05:29:50;0.40;99.90
12700;DHT22;6414;49.570;6.060;2023-02-10T05:32:36;0.40;99.90
12700;DHT22;6414;49.570;6.060;2023-02-10T05:35:21;0.20;99.90
12700;DHT22;6414;49.570;6.060;2023-02-10T05:38:07;0.10;99.90
12700;DHT22;6414;49.570;6.060;2023-02-10T05:40:52;0.20;99.90
12700;DHT22;6414;49.570;6.060;2023-02-10T05:43:39;0.10;99.90
12700;DHT22;6414;49.570;6.060;2023-02-10T05:46:24;0.10;99.90
12700;DHT22;6414;49.570;6.060;2023-02-10T05:49:10;0.10;99.90
12700;DHT22;6414;49.570;6.060;2023-02-10T05:51:56;0.10;99.90
12700;DHT22;6414;49.570;6.060;2023-02-10T05:54:42;0.00;99.90
12700;DHT22;6414;49.570;6.060;2023-02-10T05:57:27;0.00;99.90
12700;DHT22;6414;49.570;6.060;2023-02-10T06:00:13;0.00;99.90
12700;DHT22;6414;49.570;6.060;2023-02-10T06:02:59;0.00;99.90
12700;DHT22;6414;49.570;6.060;2023-02-10T06:05:44;-0.20;99.90
12700;DHT22;6414;49.570;6.060;2023-02-10T06:08:30;-0.20;99.90
12700;DHT22;6414;49.570;6.060;2023-02-10T06:11:16;-0.30;99.90
12700;DHT22;6414;49.570;6.060;2023-02-10T06:14:01;-0.30;99.90
12700;DHT22;6414;49.570;6.060;2023-02-10T06:16:47;-0.40;99.90
12700;DHT22;6414;49.570;6.060;2023-02-10T06:19:34;-0.20;99.90
12700;DHT22;6414;49.570;6.060;2023-02-10T06:22:19;-0.20;99.90
12700;DHT22;6414;49.570;6.060;2023-02-10T06:25:05;-0.10;99.90
12700;DHT22;6414;49.570;6.060;2023-02-10T06:27:50;0.00;99.90
12700;DHT22;6414;49.570;6.060;2023-02-10T06:30:36;0.10;99.90
12700;DHT22;6414;49.570;6.060;2023-02-10T06:33:22;0.10;99.90
12700;DHT22;6414;49.570;6.060;2023-02-10T06:36:07;0.10;99.90
12700;DHT22;6414;49.570;6.060;2023-02-10T06:38:52;0.20;99.90
12700;DHT22;6414;49.570;6.060;2023-02-10T06:41:38;0.30;99.90
12700;DHT22;6414;49.570;6.060;2023-02-10T06:44:23;0.30;99.90
12700;DHT22;6414;49.570;6.060;2023-02-10T06:47:09;0.30;99.90
12700;DHT22;6414;49.570;6.060;2023-02-10T06:49:54;0.30;99.90
12700;DHT22;6414;49.570;6.060;2023-02-10T06:52:40;0.30;99.90
12700;DHT22;6414;49.570;6.060;2023-02-10T06:55:25;0.30;99.90
12700;DHT22;6414;49.570;6.060;2023-02-10T06:58:10;0.40;99.90
12700;DHT22;6414;49.570;6.060;2023-02-10T07:00:56;0.40;99.90
12700;DHT22;6414;49.570;6.060;2023-02-10T07:03:41;0.40;99.90
12700;DHT22;6414;49.570;6.060;2023-02-10T07:06:27;0.40;99.90
12700;DHT22;6414;49.570;6.060;2023-02-10T07:09:13;0.30;99.90
12700;DHT22;6414;49.570;6.060;2023-02-10T07:11:58;0.30;99.90
12700;DHT22;6414;49.570;6.060;2023-02-10T07:14:44;0.30;99.90
12700;DHT22;6414;49.570;6.060;2023-02-10T07:17:29;0.40;99.90
12700;DHT22;6414;49.570;6.060;2023-02-10T07:20:15;0.40;99.90
12700;DHT22;6414;49.570;6.060;2023-02-10T07:23:00;0.50;99.90
12700;DHT22;6414;49.570;6.060;2023-02-10T07:25:45;0.60;99.90
12700;DHT22;6414;49.570;6.060;2023-02-10T07:28:31;0.50;99.90
12700;DHT22;6414;49.570;6.060;2023-02-10T07:31:16;0.50;99.90
12700;DHT22;6414;49.570;6.060;2023-02-10T07:34:02;0.50;99.90
12700;DHT22;6414;49.570;6.060;2023-02-10T07:36:47;0.40;99.90
12700;DHT22;6414;49.570;6.060;2023-02-10T07:39:34;0.20;99.90
12700;DHT22;6414;49.570;6.060;2023-02-10T07:42:19;0.20;99.90
12700;DHT22;6414;49.570;6.060;2023-02-10T07:45:06;0.10;99.90
12700;DHT22;6414;49.570;6.060;2023-02-10T07:47:52;0.10;99.90
12700;DHT22;6414;49.570;6.060;2023-02-10T07:50:38;0.10;99.90
12700;DHT22;6414;49.570;6.060;2023-02-10T07:53:24;0.20;99.90
12700;DHT22;6414;49.570;6.060;2023-02-10T07:56:10;0.20;99.90
12700;DHT22;6414;49.570;6.060;2023-02-10T07:58:56;0.40;99.90
12700;DHT22;6414;49.570;6.060;2023-02-10T08:01:42;0.70;99.90
12700;DHT22;6414;49.570;6.060;2023-02-10T08:04:29;0.70;99.90
12700;DHT22;6414;49.570;6.060;2023-02-10T08:07:13;0.90;99.90
12700;DHT22;6414;49.570;6.060;2023-02-10T08:09:59;0.90;99.90
12700;DHT22;6414;49.570;6.060;2023-02-10T08:12:44;1.00;99.90
12700;DHT22;6414;49.570;6.060;2023-02-10T08:15:29;1.00;99.90
12700;DHT22;6414;49.570;6.060;2023-02-10T08:18:15;1.00;99.90
12700;DHT22;6414;49.570;6.060;2023-02-10T08:21:01;1.00;99.90
12700;DHT22;6414;49.570;6.060;2023-02-10T08:23:47;0.80;99.90
12700;DHT22;6414;49.570;6.060;2023-02-10T08:26:32;0.80;99.90
12700;DHT22;6414;49.570;6.060;2023-02-10T08:29:17;0.80;99.90
12700;DHT22;6414;49.570;6.060;2023-02-10T08:32:03;0.90;99.90
12700;DHT22;6414;49.570;6.060;2023-02-10T08:34:49;1.00;99.90
12700;DHT22;6414;49.570;6.060;2023-02-10T08:37:34;1.00;99.90
12700;DHT22;6414;49.570;6.060;2023-02-10T08:40:20;1.10;99.90
12700;DHT22;6414;49.570;6.060;2023-02-10T08:43:06;1.30;99.90
12700;DHT22;6414;49.570;6.060;2023-02-10T08:45:54;1.50;99.90
12700;DHT22;6414;49.570;6.060;2023-02-10T08:48:37;1.50;99.90
12700;DHT22;6414;49.570;6.060;2023-02-10T08:51:22;1.50;99.90
12700;DHT22;6414;49.570;6.060;2023-02-10T08:54:08;1.50;99.90
12700;DHT22;6414;49.570;6.060;2023-02-10T08:56:53;1.60;99.90
12700;DHT22;6414;49.570;6.060;2023-02-10T08:59:39;1.60;99.90
12700;DHT22;6414;49.570;6.060;2023-02-10T09:02:26;1.70;99.90
12700;DHT22;6414;49.570;6.060;2023-02-10T09:05:11;1.70;99.90
12700;DHT22;6414;49.570;6.060;2023-02-10T09:07:56;1.60;99.90
12700;DHT22;6414;49.570;6.060;2023-02-10T09:10:42;1.70;99.90
12700;DHT22;6414;49.570;6.060;2023-02-10T09:13:27;1.80;99.90
12700;DHT22;6414;49.570;6.060;2023-02-10T09:16:13;1.90;99.90
12700;DHT22;6414;49.570;6.060;2023-02-10T09:18:58;1.90;99.90
12700;DHT22;6414;49.570;6.060;2023-02-10T09:21:43;2.00;99.90
12700;DHT22;6414;49.570;6.060;2023-02-10T09:24:29;2.10;99.90
12700;DHT22;6414;49.570;6.060;2023-02-10T09:27:15;2.00;99.90
12700;DHT22;6414;49.570;6.060;2023-02-10T09:30:01;2.00;99.90
12700;DHT22;6414;49.570;6.060;2023-02-10T09:32:47;2.00;99.90
12700;DHT22;6414;49.570;6.060;2023-02-10T09:35:32;2.00;99.90
12700;DHT22;6414;49.570;6.060;2023-02-10T09:38:18;2.00;99.90
12700;DHT22;6414;49.570;6.060;2023-02-10T09:41:22;2.00;99.90
12700;DHT22;6414;49.570;6.060;2023-02-10T09:44:23;1.90;99.90
12700;DHT22;6414;49.570;6.060;2023-02-10T09:53:26;2.70;99.90
12700;DHT22;6414;49.570;6.060;2023-02-10T09:56:11;3.10;99.90
12700;DHT22;6414;49.570;6.060;2023-02-10T09:58:54;3.10;99.90
12700;DHT22;6414;49.570;6.060;2023-02-10T10:01:40;3.00;99.90
12700;DHT22;6414;49.570;6.060;2023-02-10T10:04:24;2.90;99.90
12700;DHT22;6414;49.570;6.060;2023-02-10T10:07:26;2.90;99.90
12700;DHT22;6414;49.570;6.060;2023-02-10T10:10:31;2.90;99.90
12700;DHT22;6414;49.570;6.060;2023-02-10T10:13:18;3.20;99.90
12700;DHT22;6414;49.570;6.060;2023-02-10T10:16:13;3.20;99.90
12700;DHT22;6414;49.570;6.060;2023-02-10T10:19:11;3.20;99.90
12700;DHT22;6414;49.570;6.060;2023-02-10T10:22:21;3.30;99.90
12700;DHT22;6414;49.570;6.060;2023-02-10T10:31:26;3.70;99.90
12700;DHT22;6414;49.570;6.060;2023-02-10T10:34:16;3.80;99.90
12700;DHT22;6414;49.570;6.060;2023-02-10T10:37:00;3.60;99.90
12700;DHT22;6414;49.570;6.060;2023-02-10T10:39:49;3.60;99.90
12700;DHT22;6414;49.570;6.060;2023-02-10T10:42:45;3.50;99.90
12700;DHT22;6414;49.570;6.060;2023-02-10T10:45:34;3.50;99.90
12700;DHT22;6414;49.570;6.060;2023-02-10T10:48:22;3.40;99.90
12700;DHT22;6414;49.570;6.060;2023-02-10T10:51:04;3.50;99.90
12700;DHT22;6414;49.570;6.060;2023-02-10T10:53:55;3.40;99.90
12700;DHT22;6414;49.570;6.060;2023-02-10T10:57:05;3.40;99.90
12700;DHT22;6414;49.570;6.060;2023-02-10T10:59:45;3.40;99.90
12700;DHT22;6414;49.570;6.060;2023-02-10T11:02:29;3.50;99.90
12700;DHT22;6414;49.570;6.060;2023-02-10T11:05:15;3.50;99.90
12700;DHT22;6414;49.570;6.060;2023-02-10T11:08:01;3.50;99.90
12700;DHT22;6414;49.570;6.060;2023-02-10T11:10:48;3.90;99.90
12700;DHT22;6414;49.570;6.060;2023-02-10T11:13:32;3.90;99.90
12700;DHT22;6414;49.570;6.060;2023-02-10T11:16:18;4.00;99.90
12700;DHT22;6414;49.570;6.060;2023-02-10T11:19:04;4.00;99.90
12700;DHT22;6414;49.570;6.060;2023-02-10T11:21:53;3.90;99.90
12700;DHT22;6414;49.570;6.060;2023-02-10T11:24:35;3.90;99.90
12700;DHT22;6414;49.570;6.060;2023-02-10T11:27:20;3.80;99.90
12700;DHT22;6414;49.570;6.060;2023-02-10T11:30:23;3.70;99.90
12700;DHT22;6414;49.570;6.060;2023-02-10T11:32:52;3.70;99.90
12700;DHT22;6414;49.570;6.060;2023-02-10T11:35:37;4.10;99.90
12700;DHT22;6414;49.570;6.060;2023-02-10T11:38:24;3.90;99.90
12700;DHT22;6414;49.570;6.060;2023-02-10T11:41:09;4.00;99.90
12700;DHT22;6414;49.570;6.060;2023-02-10T11:43:56;4.20;99.90
12700;DHT22;6414;49.570;6.060;2023-02-10T11:46:42;4.20;99.90
12700;DHT22;6414;49.570;6.060;2023-02-10T11:49:28;4.50;99.90
12700;DHT22;6414;49.570;6.060;2023-02-10T11:52:12;4.50;99.90
12700;DHT22;6414;49.570;6.060;2023-02-10T11:54:58;4.40;99.90
12700;DHT22;6414;49.570;6.060;2023-02-10T11:58:10;4.50;99.90
12700;DHT22;6414;49.570;6.060;2023-02-10T12:01:19;4.50;99.90
12700;DHT22;6414;49.570;6.060;2023-02-10T12:10:27;4.10;99.90
12700;DHT22;6414;49.570;6.060;2023-02-10T12:13:33;4.30;99.90
12700;DHT22;6414;49.570;6.060;2023-02-10T12:16:18;4.30;99.90
12700;DHT22;6414;49.570;6.060;2023-02-10T12:25:31;4.40;99.90
12700;DHT22;6414;49.570;6.060;2023-02-10T12:28:28;4.30;99.90
12700;DHT22;6414;49.570;6.060;2023-02-10T12:34:14;4.30;99.90
12700;DHT22;6414;49.570;6.060;2023-02-10T12:37:00;4.70;99.90
12700;DHT22;6414;49.570;6.060;2023-02-10T12:46:05;4.80;99.90
12700;DHT22;6414;49.570;6.060;2023-02-10T12:51:42;4.80;99.90
12700;DHT22;6414;49.570;6.060;2023-02-10T12:54:45;5.00;99.90
12700;DHT22;6414;49.570;6.060;2023-02-10T12:57:47;5.00;99.90
12700;DHT22;6414;49.570;6.060;2023-02-10T13:01:04;5.00;99.90
12700;DHT22;6414;49.570;6.060;2023-02-10T13:03:36;4.90;99.90
12700;DHT22;6414;49.570;6.060;2023-02-10T13:06:46;4.90;99.90
12700;DHT22;6414;49.570;6.060;2023-02-10T13:09:32;5.10;99.90
12700;DHT22;6414;49.570;6.060;2023-02-10T13:12:32;5.10;99.90
12700;DHT22;6414;49.570;6.060;2023-02-10T13:17:54;5.10;99.90
12700;DHT22;6414;49.570;6.060;2023-02-10T13:24:10;5.30;99.90
12700;DHT22;6414;49.570;6.060;2023-02-10T13:35:46;5.20;99.90
12700;DHT22;6414;49.570;6.060;2023-02-10T13:38:31;5.10;99.90
12700;DHT22;6414;49.570;6.060;2023-02-10T13:41:24;5.00;99.90
12700;DHT22;6414;49.570;6.060;2023-02-10T13:44:30;5.00;99.90
12700;DHT22;6414;49.570;6.060;2023-02-10T13:53:04;5.20;99.90
12700;DHT22;6414;49.570;6.060;2023-02-10T13:55:48;5.10;99.90
12700;DHT22;6414;49.570;6.060;2023-02-10T13:58:33;5.00;99.90
12700;DHT22;6414;49.570;6.060;2023-02-10T14:01:47;5.20;99.90
12700;DHT22;6414;49.570;6.060;2023-02-10T14:04:41;5.10;99.90
12700;DHT22;6414;49.570;6.060;2023-02-10T14:13:22;5.50;99.90
12700;DHT22;6414;49.570;6.060;2023-02-10T14:16:07;5.50;99.90
12700;DHT22;6414;49.570;6.060;2023-02-10T14:19:02;5.50;99.90
12700;DHT22;6414;49.570;6.060;2023-02-10T14:21:46;5.40;99.90
12700;DHT22;6414;49.570;6.060;2023-02-10T14:24:42;5.40;99.90
12700;DHT22;6414;49.570;6.060;2023-02-10T14:27:23;5.30;99.90
12700;DHT22;6414;49.570;6.060;2023-02-10T14:30:15;5.30;99.90
12700;DHT22;6414;49.570;6.060;2023-02-10T14:32:58;5.40;99.90
12700;DHT22;6414;49.570;6.060;2023-02-10T14:35:49;5.40;99.90
12700;DHT22;6414;49.570;6.060;2023-02-10T14:38:32;5.40;99.90
12700;DHT22;6414;49.570;6.060;2023-02-10T14:41:17;5.40;99.90
12700;DHT22;6414;49.570;6.060;2023-02-10T14:44:02;5.50;99.90
12700;DHT22;6414;49.570;6.060;2023-02-10T14:46:48;5.50;99.90
12700;DHT22;6414;49.570;6.060;2023-02-10T14:49:33;5.50;99.90
12700;DHT22;6414;49.570;6.060;2023-02-10T14:52:23;5.50;99.90
12700;DHT22;6414;49.570;6.060;2023-02-10T14:58:18;5.60;99.90
12700;DHT22;6414;49.570;6.060;2023-02-10T15:01:12;5.40;99.90
12700;DHT22;6414;49.570;6.060;2023-02-10T15:03:55;5.40;99.90
12700;DHT22;6414;49.570;6.060;2023-02-10T15:06:42;5.50;99.90
12700;DHT22;6414;49.570;6.060;2023-02-10T15:09:33;5.50;99.90
12700;DHT22;6414;49.570;6.060;2023-02-10T15:12:17;5.60;99.90
12700;DHT22;6414;49.570;6.060;2023-02-10T15:17:59;5.50;99.90
12700;DHT22;6414;49.570;6.060;2023-02-10T15:20:50;5.30;99.90
12700;DHT22;6414;49.570;6.060;2023-02-10T15:23:28;5.30;99.90
12700;DHT22;6414;49.570;6.060;2023-02-10T15:26:22;5.20;99.90
12700;DHT22;6414;49.570;6.060;2023-02-10T15:29:07;5.20;99.90
12700;DHT22;6414;49.570;6.060;2023-02-10T15:31:56;5.30;99.90
12700;DHT22;6414;49.570;6.060;2023-02-10T15:34:39;5.30;99.90
12700;DHT22;6414;49.570;6.060;2023-02-10T15:37:24;5.10;99.90
12700;DHT22;6414;49.570;6.060;2023-02-10T15:40:24;4.70;99.90
12700;DHT22;6414;49.570;6.060;2023-02-10T15:43:06;4.70;99.90
12700;DHT22;6414;49.570;6.060;2023-02-10T15:45:50;4.60;99.90
12700;DHT22;6414;49.570;6.060;2023-02-10T15:48:36;4.60;99.90
12700;DHT22;6414;49.570;6.060;2023-02-10T15:51:23;4.60;99.90
12700;DHT22;6414;49.570;6.060;2023-02-10T15:54:10;4.60;99.90
12700;DHT22;6414;49.570;6.060;2023-02-10T15:56:54;4.40;99.90
12700;DHT22;6414;49.570;6.060;2023-02-10T15:59:39;4.40;99.90
12700;DHT22;6414;49.570;6.060;2023-02-10T16:02:25;4.30;99.90
12700;DHT22;6414;49.570;6.060;2023-02-10T16:05:11;4.50;99.90
12700;DHT22;6414;49.570;6.060;2023-02-10T16:08:00;4.40;99.90
12700;DHT22;6414;49.570;6.060;2023-02-10T16:10:43;4.20;99.90
12700;DHT22;6414;49.570;6.060;2023-02-10T16:13:29;4.20;99.90
12700;DHT22;6414;49.570;6.060;2023-02-10T16:16:15;4.20;99.90
12700;DHT22;6414;49.570;6.060;2023-02-10T16:19:01;4.20;99.90
12700;DHT22;6414;49.570;6.060;2023-02-10T16:21:47;4.20;99.90
12700;DHT22;6414;49.570;6.060;2023-02-10T16:24:32;4.10;99.90
12700;DHT22;6414;49.570;6.060;2023-02-10T16:27:18;3.90;99.90
12700;DHT22;6414;49.570;6.060;2023-02-10T16:30:04;4.00;99.90
12700;DHT22;6414;49.570;6.060;2023-02-10T16:32:50;3.70;99.90
12700;DHT22;6414;49.570;6.060;2023-02-10T16:35:36;3.70;99.90
12700;DHT22;6414;49.570;6.060;2023-02-10T16:38:22;3.60;99.90
12700;DHT22;6414;49.570;6.060;2023-02-10T16:41:08;3.60;99.90
12700;DHT22;6414;49.570;6.060;2023-02-10T16:43:54;3.30;99.90
12700;DHT22;6414;49.570;6.060;2023-02-10T16:46:40;3.30;99.90
12700;DHT22;6414;49.570;6.060;2023-02-10T16:49:25;3.30;99.90
12700;DHT22;6414;49.570;6.060;2023-02-10T16:52:10;3.30;99.90
12700;DHT22;6414;49.570;6.060;2023-02-10T16:54:57;3.20;99.90
12700;DHT22;6414;49.570;6.060;2023-02-10T16:57:42;3.20;99.90
12700;DHT22;6414;49.570;6.060;2023-02-10T17:00:28;3.20;99.90
12700;DHT22;6414;49.570;6.060;2023-02-10T17:03:13;3.20;99.90
12700;DHT22;6414;49.570;6.060;2023-02-10T17:05:59;3.20;99.90
12700;DHT22;6414;49.570;6.060;2023-02-10T17:08:44;3.20;99.90
12700;DHT22;6414;49.570;6.060;2023-02-10T17:11:30;3.20;99.90
12700;DHT22;6414;49.570;6.060;2023-02-10T17:14:15;3.20;99.90
12700;DHT22;6414;49.570;6.060;2023-02-10T17:17:01;3.10;99.90
12700;DHT22;6414;49.570;6.060;2023-02-10T17:19:47;3.10;99.90
12700;DHT22;6414;49.570;6.060;2023-02-10T17:22:33;3.00;99.90
12700;DHT22;6414;49.570;6.060;2023-02-10T17:25:20;3.00;99.90
12700;DHT22;6414;49.570;6.060;2023-02-10T17:28:05;3.00;99.90
12700;DHT22;6414;49.570;6.060;2023-02-10T17:30:51;2.90;99.90
12700;DHT22;6414;49.570;6.060;2023-02-10T17:33:36;2.90;99.90
12700;DHT22;6414;49.570;6.060;2023-02-10T17:36:25;3.00;99.90
12700;DHT22;6414;49.570;6.060;2023-02-10T17:39:12;3.00;99.90
12700;DHT22;6414;49.570;6.060;2023-02-10T17:42:08;3.00;99.90
12700;DHT22;6414;49.570;6.060;2023-02-10T17:44:53;3.00;99.90
12700;DHT22;6414;49.570;6.060;2023-02-10T17:47:38;3.10;99.90
12700;DHT22;6414;49.570;6.060;2023-02-10T17:50:24;2.90;99.90
12700;DHT22;6414;49.570;6.060;2023-02-10T17:53:10;2.60;99.90
12700;DHT22;6414;49.570;6.060;2023-02-10T17:55:55;2.40;99.90
12700;DHT22;6414;49.570;6.060;2023-02-10T17:58:41;2.30;99.90
12700;DHT22;6414;49.570;6.060;2023-02-10T18:01:28;2.30;99.90
12700;DHT22;6414;49.570;6.060;2023-02-10T18:04:13;2.30;99.90
12700;DHT22;6414;49.570;6.060;2023-02-10T18:06:59;2.30;99.90
12700;DHT22;6414;49.570;6.060;2023-02-10T18:09:44;2.30;99.90
12700;DHT22;6414;49.570;6.060;2023-02-10T18:12:30;2.30;99.90
12700;DHT22;6414;49.570;6.060;2023-02-10T18:15:16;2.30;99.90
12700;DHT22;6414;49.570;6.060;2023-02-10T18:18:02;2.40;99.90
12700;DHT22;6414;49.570;6.060;2023-02-10T18:20:47;2.40;99.90
12700;DHT22;6414;49.570;6.060;2023-02-10T18:23:33;2.40;99.90
12700;DHT22;6414;49.570;6.060;2023-02-10T18:26:19;2.10;99.90
12700;DHT22;6414;49.570;6.060;2023-02-10T18:29:04;2.10;99.90
12700;DHT22;6414;49.570;6.060;2023-02-10T18:31:50;2.10;99.90
12700;DHT22;6414;49.570;6.060;2023-02-10T18:34:36;2.00;99.90
12700;DHT22;6414;49.570;6.060;2023-02-10T18:37:21;2.00;99.90
12700;DHT22;6414;49.570;6.060;2023-02-10T18:40:08;2.00;99.90
12700;DHT22;6414;49.570;6.060;2023-02-10T18:42:53;2.10;99.90
12700;DHT22;6414;49.570;6.060;2023-02-10T18:45:39;2.00;99.90
12700;DHT22;6414;49.570;6.060;2023-02-10T18:48:25;2.00;99.90
12700;DHT22;6414;49.570;6.060;2023-02-10T18:51:11;2.00;99.90
12700;DHT22;6414;49.570;6.060;2023-02-10T18:53:57;2.40;99.90
12700;DHT22;6414;49.570;6.060;2023-02-10T18:56:42;2.40;99.90
12700;DHT22;6414;49.570;6.060;2023-02-10T18:59:28;2.50;99.90
12700;DHT22;6414;49.570;6.060;2023-02-10T19:02:14;2.70;99.90
12700;DHT22;6414;49.570;6.060;2023-02-10T19:05:00;3.00;99.90
12700;DHT22;6414;49.570;6.060;2023-02-10T19:07:45;3.00;99.90
12700;DHT22;6414;49.570;6.060;2023-02-10T19:10:31;3.10;99.90
12700;DHT22;6414;49.570;6.060;2023-02-10T19:13:16;3.20;99.90
12700;DHT22;6414;49.570;6.060;2023-02-10T19:16:02;3.20;99.90
12700;DHT22;6414;49.570;6.060;2023-02-10T19:18:47;3.10;99.90
12700;DHT22;6414;49.570;6.060;2023-02-10T19:21:33;3.10;99.90
12700;DHT22;6414;49.570;6.060;2023-02-10T19:24:19;3.10;99.90
12700;DHT22;6414;49.570;6.060;2023-02-10T19:27:04;3.20;99.90
12700;DHT22;6414;49.570;6.060;2023-02-10T19:29:50;3.30;99.90
12700;DHT22;6414;49.570;6.060;2023-02-10T19:32:35;3.30;99.90